sensor_id;sensor_type;location;lat;lon;timestamp;pressure;altitude;pressure_sealevel;temperature;humidity
60345;BME280;46188;52.324;8.032;2023-02-18T00:01:18;100914.69;;;7.51;100.00
60345;BME280;46188;52.324;8.032;2023-02-18T00:03:44;100915.44;;;7.47;100.00
60345;BME280;46188;52.324;8.032;2023-02-18T00:06:19;100918.06;;;7.47;100.00
60345;BME280;46188;52.324;8.032;2023-02-18T00:08:46;100907.53;;;7.45;100.00
60345;BME280;46188;52.324;8.032;2023-02-18T00:11:13;100903.31;;;7.50;100.00
60345;BME280;46188;52.324;8.032;2023-02-18T00:13:38;100898.00;;;7.49;100.00
60345;BME280;46188;52.324;8.032;2023-02-18T00:16:07;100896.22;;;7.48;100.00
60345;BME280;46188;52.324;8.032;2023-02-18T00:18:33;100894.25;;;7.41;100.00
60345;BME280;46188;52.324;8.032;2023-02-18T00:20:58;100892.47;;;7.39;100.00
60345;BME280;46188;52.324;8.032;2023-02-18T00:23:24;100901.19;;;7.38;100.00
60345;BME280;46188;52.324;8.032;2023-02-18T00:25:58;100901.06;;;7.34;100.00
60345;BME280;46188;52.324;8.032;2023-02-18T00:28:24;100902.03;;;7.37;100.00
60345;BME280;46188;52.324;8.032;2023-02-18T00:30:49;100907.28;;;7.37;100.00
60345;BME280;46188;52.324;8.032;2023-02-18T00:33:14;100906.63;;;7.45;100.00
60345;BME280;46188;52.324;8.032;2023-02-18T00:35:40;100903.06;;;7.43;100.00
60345;BME280;46188;52.324;8.032;2023-02-18T00:38:05;100902.22;;;7.44;100.00
60345;BME280;46188;52.324;8.032;2023-02-18T00:40:30;100888.78;;;7.33;100.00
60345;BME280;46188;52.324;8.032;2023-02-18T00:42:56;100894.25;;;7.41;100.00
60345;BME280;46188;52.324;8.032;2023-02-18T00:45:21;100883.88;;;7.44;100.00
60345;BME280;46188;52.324;8.032;2023-02-18T00:47:47;100878.72;;;7.47;100.00
60345;BME280;46188;52.324;8.032;2023-02-18T00:50:12;100883.19;;;7.51;100.00
60345;BME280;46188;52.324;8.032;2023-02-18T00:52:37;100884.94;;;7.50;100.00
60345;BME280;46188;52.324;8.032;2023-02-18T00:55:03;100893.78;;;7.54;100.00
60345;BME280;46188;52.324;8.032;2023-02-18T00:57:29;100887.66;;;7.53;100.00
60345;BME280;46188;52.324;8.032;2023-02-18T00:59:54;100890.38;;;7.56;100.00
60345;BME280;46188;52.324;8.032;2023-02-18T01:02:20;100885.38;;;7.66;100.00
60345;BME280;46188;52.324;8.032;2023-02-18T01:04:45;100887.03;;;7.62;100.00
60345;BME280;46188;52.324;8.032;2023-02-18T01:07:10;100885.81;;;7.51;100.00
60345;BME280;46188;52.324;8.032;2023-02-18T01:09:36;100884.22;;;7.56;100.00
60345;BME280;46188;52.324;8.032;2023-02-18T01:12:02;100886.22;;;7.63;100.00
60345;BME280;46188;52.324;8.032;2023-02-18T01:14:27;100880.00;;;7.61;100.00
60345;BME280;46188;52.324;8.032;2023-02-18T01:16:53;100887.97;;;7.64;100.00
60345;BME280;46188;52.324;8.032;2023-02-18T01:19:18;100884.50;;;7.65;100.00
60345;BME280;46188;52.324;8.032;2023-02-18T01:21:44;100887.31;;;7.71;100.00
60345;BME280;46188;52.324;8.032;2023-02-18T01:24:09;100877.84;;;7.76;100.00
60345;BME280;46188;52.324;8.032;2023-02-18T01:26:34;100881.41;;;7.79;100.00
60345;BME280;46188;52.324;8.032;2023-02-18T01:29:00;100881.50;;;7.82;100.00
60345;BME280;46188;52.324;8.032;2023-02-18T01:31:25;100860.50;;;7.82;100.00
60345;BME280;46188;52.324;8.032;2023-02-18T01:33:51;100857.03;;;7.84;100.00
60345;BME280;46188;52.324;8.032;2023-02-18T01:36:16;100854.47;;;7.86;100.00
60345;BME280;46188;52.324;8.032;2023-02-18T01:38:42;100845.91;;;7.91;100.00
60345;BME280;46188;52.324;8.032;2023-02-18T01:41:08;100851.09;;;7.90;100.00
60345;BME280;46188;52.324;8.032;2023-02-18T01:43:34;100850.22;;;7.91;100.00
60345;BME280;46188;52.324;8.032;2023-02-18T01:46:04;100852.91;;;7.92;100.00
60345;BME280;46188;52.324;8.032;2023-02-18T01:51:17;100840.47;;;7.85;100.00
60345;BME280;46188;52.324;8.032;2023-02-18T01:56:31;100835.44;;;7.93;100.00
60345;BME280;46188;52.324;8.032;2023-02-18T01:59:01;100829.22;;;7.91;100.00
60345;BME280;46188;52.324;8.032;2023-02-18T02:01:27;100817.19;;;7.99;100.00
60345;BME280;46188;52.324;8.032;2023-02-18T02:03:53;100809.31;;;7.99;100.00
60345;BME280;46188;52.324;8.032;2023-02-18T02:06:21;100802.44;;;8.03;100.00
60345;BME280;46188;52.324;8.032;2023-02-18T02:08:48;100802.22;;;7.95;100.00
60345;BME280;46188;52.324;8.032;2023-02-18T02:14:12;100795.56;;;8.08;100.00
60345;BME280;46188;52.324;8.032;2023-02-18T02:17:26;100790.06;;;7.99;100.00
60345;BME280;46188;52.324;8.032;2023-02-18T02:39:20;100771.16;;;8.12;100.00
60345;BME280;46188;52.324;8.032;2023-02-18T02:46:50;100777.63;;;8.25;100.00
60345;BME280;46188;52.324;8.032;2023-02-18T02:49:38;100774.38;;;8.35;100.00
60345;BME280;46188;52.324;8.032;2023-02-18T02:54:38;100763.69;;;8.29;100.00
60345;BME280;46188;52.324;8.032;2023-02-18T02:59:43;100751.53;;;8.31;100.00
60345;BME280;46188;52.324;8.032;2023-02-18T03:05:09;100743.69;;;8.32;100.00
60345;BME280;46188;52.324;8.032;2023-02-18T03:07:46;100728.81;;;8.33;100.00
60345;BME280;46188;52.324;8.032;2023-02-18T03:11:01;100727.00;;;8.32;100.00
60345;BME280;46188;52.324;8.032;2023-02-18T03:19:17;100705.91;;;8.29;100.00
60345;BME280;46188;52.324;8.032;2023-02-18T03:22:06;100690.25;;;8.32;100.00
60345;BME280;46188;52.324;8.032;2023-02-18T03:24:41;100699.88;;;8.31;100.00
60345;BME280;46188;52.324;8.032;2023-02-18T03:27:15;100684.28;;;8.39;100.00
60345;BME280;46188;52.324;8.032;2023-02-18T03:29:44;100687.75;;;8.38;100.00
60345;BME280;46188;52.324;8.032;2023-02-18T03:32:13;100680.69;;;8.36;100.00
60345;BME280;46188;52.324;8.032;2023-02-18T03:34:45;100684.22;;;8.36;100.00
60345;BME280;46188;52.324;8.032;2023-02-18T03:37:13;100674.66;;;8.40;100.00
60345;BME280;46188;52.324;8.032;2023-02-18T03:39:42;100685.41;;;8.47;100.00
60345;BME280;46188;52.324;8.032;2023-02-18T03:42:09;100681.06;;;8.49;100.00
60345;BME280;46188;52.324;8.032;2023-02-18T03:44:34;100678.38;;;8.48;100.00
60345;BME280;46188;52.324;8.032;2023-02-18T03:47:00;100670.63;;;8.53;100.00
60345;BME280;46188;52.324;8.032;2023-02-18T03:49:26;100665.19;;;8.45;100.00
60345;BME280;46188;52.324;8.032;2023-02-18T03:51:51;100669.72;;;8.52;100.00
60345;BME280;46188;52.324;8.032;2023-02-18T03:54:17;100670.63;;;8.53;100.00
60345;BME280;46188;52.324;8.032;2023-02-18T03:56:43;100664.19;;;8.41;100.00
60345;BME280;46188;52.324;8.032;2023-02-18T03:59:10;100652.94;;;8.45;100.00
60345;BME280;46188;52.324;8.032;2023-02-18T04:01:35;100660.88;;;8.48;100.00
60345;BME280;46188;52.324;8.032;2023-02-18T04:04:01;100658.22;;;8.47;100.00
60345;BME280;46188;52.324;8.032;2023-02-18T04:06:27;100655.69;;;8.52;100.00
60345;BME280;46188;52.324;8.032;2023-02-18T04:08:52;100636.53;;;8.56;100.00
60345;BME280;46188;52.324;8.032;2023-02-18T04:11:18;100649.53;;;8.49;100.00
60345;BME280;46188;52.324;8.032;2023-02-18T04:13:43;100639.63;;;8.39;100.00
60345;BME280;46188;52.324;8.032;2023-02-18T04:16:09;100632.88;;;8.50;100.00
60345;BME280;46188;52.324;8.032;2023-02-18T04:18:34;100625.88;;;8.49;100.00
60345;BME280;46188;52.324;8.032;2023-02-18T04:21:00;100622.56;;;8.58;100.00
60345;BME280;46188;52.324;8.032;2023-02-18T04:23:25;100616.47;;;8.59;100.00
60345;BME280;46188;52.324;8.032;2023-02-18T04:25:51;100613.88;;;8.61;100.00
60345;BME280;46188;52.324;8.032;2023-02-18T04:28:16;100594.53;;;8.59;100.00
60345;BME280;46188;52.324;8.032;2023-02-18T04:30:45;100587.56;;;8.59;100.00
60345;BME280;46188;52.324;8.032;2023-02-18T04:33:11;100591.09;;;8.61;100.00
60345;BME280;46188;52.324;8.032;2023-02-18T04:35:37;100588.53;;;8.64;100.00
60345;BME280;46188;52.324;8.032;2023-02-18T04:38:05;100584.94;;;8.59;100.00
60345;BME280;46188;52.324;8.032;2023-02-18T04:40:30;100583.22;;;8.61;100.00
60345;BME280;46188;52.324;8.032;2023-02-18T04:42:59;100580.75;;;8.69;100.00
60345;BME280;46188;52.324;8.032;2023-02-18T04:45:26;100579.91;;;8.72;100.00
60345;BME280;46188;52.324;8.032;2023-02-18T04:47:51;100577.38;;;8.76;100.00
60345;BME280;46188;52.324;8.032;2023-02-18T04:50:17;100568.66;;;8.77;100.00
60345;BME280;46188;52.324;8.032;2023-02-18T04:52:43;100565.97;;;8.74;100.00
60345;BME280;46188;52.324;8.032;2023-02-18T04:55:08;100571.00;;;8.65;100.00
60345;BME280;46188;52.324;8.032;2023-02-18T04:57:34;100561.41;;;8.67;100.00
60345;BME280;46188;52.324;8.032;2023-02-18T04:59:59;100557.00;;;8.64;100.00
60345;BME280;46188;52.324;8.032;2023-02-18T05:02:25;100558.78;;;8.67;100.00
60345;BME280;46188;52.324;8.032;2023-02-18T05:04:50;100555.22;;;8.63;100.00
60345;BME280;46188;52.324;8.032;2023-02-18T05:07:16;100544.66;;;8.62;100.00
60345;BME280;46188;52.324;8.032;2023-02-18T05:09:41;100546.50;;;8.64;100.00
60345;BME280;46188;52.324;8.032;2023-02-18T05:12:07;100544.66;;;8.62;100.00
60345;BME280;46188;52.324;8.032;2023-02-18T05:14:32;100542.03;;;8.62;100.00
60345;BME280;46188;52.324;8.032;2023-02-18T05:16:58;100533.28;;;8.61;100.00
60345;BME280;46188;52.324;8.032;2023-02-18T05:19:23;100521.09;;;8.65;100.00
60345;BME280;46188;52.324;8.032;2023-02-18T05:21:49;100522.97;;;8.71;100.00
60345;BME280;46188;52.324;8.032;2023-02-18T05:24:14;100532.50;;;8.67;100.00
60345;BME280;46188;52.324;8.032;2023-02-18T05:26:39;100516.88;;;8.73;100.00
60345;BME280;46188;52.324;8.032;2023-02-18T05:29:05;100518.63;;;8.73;100.00
60345;BME280;46188;52.324;8.032;2023-02-18T05:31:30;100503.72;;;8.73;100.00
60345;BME280;46188;52.324;8.032;2023-02-18T05:33:56;100502.84;;;8.73;100.00
60345;BME280;46188;52.324;8.032;2023-02-18T05:36:21;100502.00;;;8.75;100.00
60345;BME280;46188;52.324;8.032;2023-02-18T05:38:47;100487.19;;;8.80;100.00
60345;BME280;46188;52.324;8.032;2023-02-18T05:41:12;100481.03;;;8.78;100.00
60345;BME280;46188;52.324;8.032;2023-02-18T05:43:38;100475.84;;;8.81;100.00
60345;BME280;46188;52.324;8.032;2023-02-18T05:46:22;100466.34;;;8.90;100.00
60345;BME280;46188;52.324;8.032;2023-02-18T05:48:47;100468.97;;;8.90;100.00
60345;BME280;46188;52.324;8.032;2023-02-18T05:51:13;100462.88;;;8.91;100.00
60345;BME280;46188;52.324;8.032;2023-02-18T05:53:38;100464.59;;;8.90;100.00
60345;BME280;46188;52.324;8.032;2023-02-18T05:56:04;100457.56;;;8.88;100.00
60345;BME280;46188;52.324;8.032;2023-02-18T05:58:30;100449.66;;;8.88;100.00
60345;BME280;46188;52.324;8.032;2023-02-18T06:00:55;100447.84;;;8.85;100.00
60345;BME280;46188;52.324;8.032;2023-02-18T06:03:20;100440.88;;;8.85;100.00
60345;BME280;46188;52.324;8.032;2023-02-18T06:05:49;100429.56;;;8.91;100.00
60345;BME280;46188;52.324;8.032;2023-02-18T06:08:15;100426.03;;;8.89;100.00
60345;BME280;46188;52.324;8.032;2023-02-18T06:10:40;100418.13;;;8.88;100.00
60345;BME280;46188;52.324;8.032;2023-02-18T06:13:05;100421.69;;;8.91;100.00
60345;BME280;46188;52.324;8.032;2023-02-18T06:15:31;100418.19;;;8.91;100.00
60345;BME280;46188;52.324;8.032;2023-02-18T06:17:56;100429.72;;;8.99;100.00
60345;BME280;46188;52.324;8.032;2023-02-18T06:20:22;100409.53;;;8.98;100.00
60345;BME280;46188;52.324;8.032;2023-02-18T06:22:47;100420.00;;;8.96;100.00
60345;BME280;46188;52.324;8.032;2023-02-18T06:25:13;100410.47;;;9.03;100.00
60345;BME280;46188;52.324;8.032;2023-02-18T06:27:38;100407.00;;;9.04;100.00
60345;BME280;46188;52.324;8.032;2023-02-18T06:30:04;100415.78;;;9.04;100.00
60345;BME280;46188;52.324;8.032;2023-02-18T06:32:29;100402.59;;;9.03;100.00
60345;BME280;46188;52.324;8.032;2023-02-18T06:34:55;100406.19;;;9.08;100.00
60345;BME280;46188;52.324;8.032;2023-02-18T06:37:20;100395.72;;;9.11;100.00
60345;BME280;46188;52.324;8.032;2023-02-18T06:39:46;100408.88;;;9.13;100.00
60345;BME280;46188;52.324;8.032;2023-02-18T06:42:11;100400.00;;;9.04;100.00
60345;BME280;46188;52.324;8.032;2023-02-18T06:44:36;100401.78;;;9.05;100.00
60345;BME280;46188;52.324;8.032;2023-02-18T06:47:02;100407.88;;;9.04;100.00
60345;BME280;46188;52.324;8.032;2023-02-18T06:49:27;100400.00;;;9.04;100.00
60345;BME280;46188;52.324;8.032;2023-02-18T06:51:52;100391.22;;;9.04;100.00
60345;BME280;46188;52.324;8.032;2023-02-18T06:54:18;100394.69;;;9.01;100.00
60345;BME280;46188;52.324;8.032;2023-02-18T06:56:43;100390.41;;;9.08;100.00
60345;BME280;46188;52.324;8.032;2023-02-18T06:59:09;100389.47;;;9.04;100.00
60345;BME280;46188;52.324;8.032;2023-02-18T07:01:35;100382.47;;;9.07;100.00
60345;BME280;46188;52.324;8.032;2023-02-18T07:04:01;100383.34;;;9.04;100.00
60345;BME280;46188;52.324;8.032;2023-02-18T07:06:26;100373.69;;;9.04;100.00
60345;BME280;46188;52.324;8.032;2023-02-18T07:08:52;100371.97;;;9.07;100.00
60345;BME280;46188;52.324;8.032;2023-02-18T07:11:17;100373.78;;;9.09;100.00
60345;BME280;46188;52.324;8.032;2023-02-18T07:13:42;100365.00;;;9.10;100.00
60345;BME280;46188;52.324;8.032;2023-02-18T07:16:08;100361.50;;;9.10;100.00
60345;BME280;46188;52.324;8.032;2023-02-18T07:18:33;100362.41;;;9.12;100.00
60345;BME280;46188;52.324;8.032;2023-02-18T07:20:59;100365.91;;;9.11;100.00
60345;BME280;46188;52.324;8.032;2023-02-18T07:23:24;100371.16;;;9.11;100.00
60345;BME280;46188;52.324;8.032;2023-02-18T07:25:49;100354.38;;;9.02;100.00
60345;BME280;46188;52.324;8.032;2023-02-18T07:28:15;100357.13;;;9.10;100.00
60345;BME280;46188;52.324;8.032;2023-02-18T07:30:40;100363.22;;;9.08;100.00
60345;BME280;46188;52.324;8.032;2023-02-18T07:33:06;100366.75;;;9.10;100.00
60345;BME280;46188;52.324;8.032;2023-02-18T07:35:31;100365.03;;;9.12;100.00
60345;BME280;46188;52.324;8.032;2023-02-18T07:37:56;100371.19;;;9.12;100.00
60345;BME280;46188;52.324;8.032;2023-02-18T07:40:22;100358.91;;;9.13;100.00
60345;BME280;46188;52.324;8.032;2023-02-18T07:42:48;100366.81;;;9.13;100.00
60345;BME280;46188;52.324;8.032;2023-02-18T07:45:14;100354.50;;;9.12;100.00
60345;BME280;46188;52.324;8.032;2023-02-18T07:47:39;100348.38;;;9.11;100.00
60345;BME280;46188;52.324;8.032;2023-02-18T07:50:07;100360.69;;;9.12;100.00
60345;BME280;46188;52.324;8.032;2023-02-18T07:52:33;100365.00;;;9.09;100.00
60345;BME280;46188;52.324;8.032;2023-02-18T07:54:59;100363.31;;;9.12;100.00
60345;BME280;46188;52.324;8.032;2023-02-18T07:57:24;100365.09;;;9.15;100.00
60345;BME280;46188;52.324;8.032;2023-02-18T07:59:49;100359.81;;;9.15;100.00
60345;BME280;46188;52.324;8.032;2023-02-18T08:02:22;100370.34;;;9.15;100.00
60345;BME280;46188;52.324;8.032;2023-02-18T08:04:48;100369.50;;;9.17;100.00
60345;BME280;46188;52.324;8.032;2023-02-18T08:07:14;100358.09;;;9.15;100.00
60345;BME280;46188;52.324;8.032;2023-02-18T08:09:40;100353.78;;;9.20;100.00
60345;BME280;46188;52.324;8.032;2023-02-18T08:12:06;100362.47;;;9.16;100.00
60345;BME280;46188;52.324;8.032;2023-02-18T08:14:32;100373.88;;;9.15;100.00
60345;BME280;46188;52.324;8.032;2023-02-18T08:16:57;100364.25;;;9.17;100.00
60345;BME280;46188;52.324;8.032;2023-02-18T08:19:23;100351.88;;;9.12;100.00
60345;BME280;46188;52.324;8.032;2023-02-18T08:21:48;100357.13;;;9.12;100.00
60345;BME280;46188;52.324;8.032;2023-02-18T08:24:14;100350.28;;;9.23;100.00
60345;BME280;46188;52.324;8.032;2023-02-18T08:26:39;100354.63;;;9.19;100.00
60345;BME280;46188;52.324;8.032;2023-02-18T08:29:05;100350.22;;;9.17;100.00
60345;BME280;46188;52.324;8.032;2023-02-18T08:31:31;100354.63;;;9.19;100.00
60345;BME280;46188;52.324;8.032;2023-02-18T08:33:57;100352.91;;;9.21;100.00
60345;BME280;46188;52.324;8.032;2023-02-18T08:36:24;100358.13;;;9.18;100.00
60345;BME280;46188;52.324;8.032;2023-02-18T08:38:49;100348.56;;;9.23;100.00
60345;BME280;46188;52.324;8.032;2023-02-18T08:41:15;100370.53;;;9.27;100.00
60345;BME280;46188;52.324;8.032;2023-02-18T08:43:43;100369.72;;;9.33;100.00
60345;BME280;46188;52.324;8.032;2023-02-18T08:46:09;100365.41;;;9.38;100.00
60345;BME280;46188;52.324;8.032;2023-02-18T08:48:35;100346.16;;;9.39;100.00
60345;BME280;46188;52.324;8.032;2023-02-18T08:51:13;100355.72;;;9.34;100.00
60345;BME280;46188;52.324;8.032;2023-02-18T08:53:39;100345.19;;;9.34;100.00
60345;BME280;46188;52.324;8.032;2023-02-18T08:56:06;100375.03;;;9.34;100.00
60345;BME280;46188;52.324;8.032;2023-02-18T08:58:32;100358.34;;;9.32;100.00
60345;BME280;46188;52.324;8.032;2023-02-18T09:01:02;100363.63;;;9.34;100.00
60345;BME280;46188;52.324;8.032;2023-02-18T09:03:27;100359.25;;;9.36;100.00
60345;BME280;46188;52.324;8.032;2023-02-18T09:05:53;100346.06;;;9.34;100.00
60345;BME280;46188;52.324;8.032;2023-02-18T09:08:18;100349.59;;;9.35;100.00
60345;BME280;46188;52.324;8.032;2023-02-18T09:10:43;100347.91;;;9.40;100.00
60345;BME280;46188;52.324;8.032;2023-02-18T09:13:09;100347.91;;;9.38;100.00
60345;BME280;46188;52.324;8.032;2023-02-18T09:15:34;100337.44;;;9.45;100.00
60345;BME280;46188;52.324;8.032;2023-02-18T09:18:00;100347.94;;;9.43;100.00
60345;BME280;46188;52.324;8.032;2023-02-18T09:20:26;100340.03;;;9.43;100.00
60345;BME280;46188;52.324;8.032;2023-02-18T09:22:51;100352.25;;;9.38;100.00
60345;BME280;46188;52.324;8.032;2023-02-18T09:25:17;100345.28;;;9.38;100.00
60345;BME280;46188;52.324;8.032;2023-02-18T09:27:42;100339.91;;;9.32;100.00
60345;BME280;46188;52.324;8.032;2023-02-18T09:30:08;100345.19;;;9.34;100.00
60345;BME280;46188;52.324;8.032;2023-02-18T09:32:34;100339.06;;;9.35;100.00
60345;BME280;46188;52.324;8.032;2023-02-18T09:35:00;100332.94;;;9.34;100.00
60345;BME280;46188;52.324;8.032;2023-02-18T09:37:26;100324.22;;;9.40;100.00
60345;BME280;46188;52.324;8.032;2023-02-18T09:39:53;100320.66;;;9.35;100.00
60345;BME280;46188;52.324;8.032;2023-02-18T09:42:20;100327.72;;;9.39;100.00
60345;BME280;46188;52.324;8.032;2023-02-18T09:44:51;100318.03;;;9.36;100.00
60345;BME280;46188;52.324;8.032;2023-02-18T09:50:18;100312.84;;;9.41;100.00
60345;BME280;46188;52.324;8.032;2023-02-18T09:52:44;100321.56;;;9.35;100.00
60345;BME280;46188;52.324;8.032;2023-02-18T09:55:32;100306.72;;;9.40;100.00
60345;BME280;46188;52.324;8.032;2023-02-18T09:58:06;100304.84;;;9.33;100.00
60345;BME280;46188;52.324;8.032;2023-02-18T10:00:39;100320.66;;;9.35;100.00
60345;BME280;46188;52.324;8.032;2023-02-18T10:03:10;100371.56;;;9.37;100.00
60345;BME280;46188;52.324;8.032;2023-02-18T10:05:40;100332.03;;;9.32;100.00
60345;BME280;46188;52.324;8.032;2023-02-18T10:08:17;100343.41;;;9.31;100.00
60345;BME280;46188;52.324;8.032;2023-02-18T10:10:45;100344.19;;;9.24;100.00
60345;BME280;46188;52.324;8.032;2023-02-18T10:13:20;100342.44;;;9.24;100.00
60345;BME280;46188;52.324;8.032;2023-02-18T10:15:47;100338.13;;;9.30;100.00
60345;BME280;46188;52.324;8.032;2023-02-18T10:18:46;100345.97;;;9.28;100.00
60345;BME280;46188;52.324;8.032;2023-02-18T10:21:17;100343.25;;;9.20;100.00
60345;BME280;46188;52.324;8.032;2023-02-18T10:26:16;100329.03;;;9.06;100.00
60345;BME280;46188;52.324;8.032;2023-02-18T10:28:43;100317.69;;;9.12;100.00
60345;BME280;46188;52.324;8.032;2023-02-18T10:31:09;100328.22;;;9.12;100.00
60345;BME280;46188;52.324;8.032;2023-02-18T10:33:45;100348.25;;;9.03;100.00
60345;BME280;46188;52.324;8.032;2023-02-18T10:36:24;100344.69;;;9.00;100.00
60345;BME280;46188;52.324;8.032;2023-02-18T10:42:23;100359.50;;;8.93;100.00
60345;BME280;46188;52.324;8.032;2023-02-18T10:45:17;100372.59;;;8.92;100.00
60345;BME280;46188;52.324;8.032;2023-02-18T10:48:10;100352.31;;;8.83;100.00
60345;BME280;46188;52.324;8.032;2023-02-18T10:50:43;100362.09;;;8.92;100.00
60345;BME280;46188;52.324;8.032;2023-02-18T10:53:22;100350.63;;;8.86;100.00
60345;BME280;46188;52.324;8.032;2023-02-18T10:55:49;100356.66;;;8.79;100.00
60345;BME280;46188;52.324;8.032;2023-02-18T10:58:32;100358.47;;;8.83;100.00
60345;BME280;46188;52.324;8.032;2023-02-18T11:01:06;100349.63;;;8.78;100.00
60345;BME280;46188;52.324;8.032;2023-02-18T11:03:44;100362.03;;;8.85;100.00
60345;BME280;46188;52.324;8.032;2023-02-18T11:06:30;100367.28;;;8.85;100.00
60345;BME280;46188;52.324;8.032;2023-02-18T11:08:57;100368.19;;;8.88;100.00
60345;BME280;46188;52.324;8.032;2023-02-18T11:13:54;100361.03;;;8.79;100.00
60345;BME280;46188;52.324;8.032;2023-02-18T11:16:35;100361.84;;;8.76;100.00
60345;BME280;46188;52.324;8.032;2023-02-18T11:19:01;100367.16;;;8.79;100.00
60345;BME280;46188;52.324;8.032;2023-02-18T11:21:36;100344.16;;;8.66;100.00
60345;BME280;46188;52.324;8.032;2023-02-18T11:24:13;100363.59;;;8.74;100.00
60345;BME280;46188;52.324;8.032;2023-02-18T11:26:39;100367.13;;;8.76;100.00
60345;BME280;46188;52.324;8.032;2023-02-18T11:31:46;100370.63;;;8.77;100.00
60345;BME280;46188;52.324;8.032;2023-02-18T11:34:16;100358.28;;;8.71;100.00
60345;BME280;46188;52.324;8.032;2023-02-18T11:36:43;100358.16;;;8.65;100.00
60345;BME280;46188;52.324;8.032;2023-02-18T11:39:24;100367.00;;;8.70;100.00
60345;BME280;46188;52.324;8.032;2023-02-18T11:44:28;100370.50;;;8.69;100.00
60345;BME280;46188;52.324;8.032;2023-02-18T11:49:22;100361.69;;;8.67;100.00
60345;BME280;46188;52.324;8.032;2023-02-18T11:51:49;100366.06;;;8.66;100.00
60345;BME280;46188;52.324;8.032;2023-02-18T11:54:25;100384.56;;;8.73;100.00
60345;BME280;46188;52.324;8.032;2023-02-18T11:57:01;100360.94;;;8.74;100.00
60345;BME280;46188;52.324;8.032;2023-02-18T11:59:33;100375.88;;;8.77;100.00
60345;BME280;46188;52.324;8.032;2023-02-18T12:04:43;100378.53;;;8.78;100.00
60345;BME280;46188;52.324;8.032;2023-02-18T12:07:20;100376.81;;;8.82;100.00
60345;BME280;46188;52.324;8.032;2023-02-18T12:09:52;100374.22;;;8.83;100.00
60345;BME280;46188;52.324;8.032;2023-02-18T12:13:01;100377.72;;;8.82;100.00
60345;BME280;46188;52.324;8.032;2023-02-18T12:18:52;100357.63;;;8.86;100.00
60345;BME280;46188;52.324;8.032;2023-02-18T12:24:14;100386.59;;;8.88;100.00
60345;BME280;46188;52.324;8.032;2023-02-18T12:30:05;100367.41;;;8.95;100.00
60345;BME280;46188;52.324;8.032;2023-02-18T12:33:07;100360.38;;;8.95;100.00
60345;BME280;46188;52.324;8.032;2023-02-18T12:41:24;100362.19;;;8.98;100.00
60345;BME280;46188;52.324;8.032;2023-02-18T12:57:33;100369.03;;;8.86;100.00
60345;BME280;46188;52.324;8.032;2023-02-18T13:02:54;100368.00;;;8.78;100.00
60345;BME280;46188;52.324;8.032;2023-02-18T13:05:51;100381.31;;;8.88;100.00
60345;BME280;46188;52.324;8.032;2023-02-18T13:08:53;100364.81;;;8.96;100.00
60345;BME280;46188;52.324;8.032;2023-02-18T13:14:17;100376.31;;;9.03;100.00
60345;BME280;46188;52.324;8.032;2023-02-18T13:16:48;100372.78;;;9.01;100.00
60345;BME280;46188;52.324;8.032;2023-02-18T13:19:25;100384.22;;;9.04;100.00
60345;BME280;46188;52.324;8.032;2023-02-18T13:21:58;100382.38;;;8.99;100.00
60345;BME280;46188;52.324;8.032;2023-02-18T13:24:31;100387.56;;;8.94;100.00
60345;BME280;46188;52.324;8.032;2023-02-18T13:27:17;100386.69;;;8.94;100.00
60345;BME280;46188;52.324;8.032;2023-02-18T13:35:18;100393.00;;;9.07;100.00
60345;BME280;46188;52.324;8.032;2023-02-18T13:40:31;100378.19;;;9.13;100.00
60345;BME280;46188;52.324;8.032;2023-02-18T13:43:29;100373.81;;;9.12;100.00
60345;BME280;46188;52.324;8.032;2023-02-18T13:46:17;100388.66;;;9.10;100.00
60345;BME280;46188;52.324;8.032;2023-02-18T13:48:48;100386.09;;;9.13;100.00
60345;BME280;46188;52.324;8.032;2023-02-18T13:54:02;100394.00;;;9.15;100.00
60345;BME280;46188;52.324;8.032;2023-02-18T13:56:30;100381.72;;;9.12;100.00
60345;BME280;46188;52.324;8.032;2023-02-18T13:59:16;100385.16;;;9.10;100.00
60345;BME280;46188;52.324;8.032;2023-02-18T14:01:44;100385.28;;;9.17;100.00
60345;BME280;46188;52.324;8.032;2023-02-18T14:09:43;100386.97;;;9.12;100.00
60345;BME280;46188;52.324;8.032;2023-02-18T14:14:59;100388.78;;;9.16;100.00
60345;BME280;46188;52.324;8.032;2023-02-18T14:17:30;100399.34;;;9.19;100.00
60345;BME280;46188;52.324;8.032;2023-02-18T14:22:32;100404.78;;;9.30;100.00
60345;BME280;46188;52.324;8.032;2023-02-18T14:27:32;100399.56;;;9.32;100.00
60345;BME280;46188;52.324;8.032;2023-02-18T14:30:03;100394.31;;;9.36;100.00
60345;BME280;46188;52.324;8.032;2023-02-18T14:32:32;100396.09;;;9.37;100.00
60345;BME280;46188;52.324;8.032;2023-02-18T14:43:15;100411.03;;;9.37;100.00
60345;BME280;46188;52.324;8.032;2023-02-18T14:49:35;100418.16;;;9.46;100.00
60345;BME280;46188;52.324;8.032;2023-02-18T14:51:42;100412.91;;;9.47;100.00
60345;BME280;46188;52.324;8.032;2023-02-18T14:54:18;100417.28;;;9.45;100.00
60345;BME280;46188;52.324;8.032;2023-02-18T14:57:16;100419.06;;;9.48;100.00
60345;BME280;46188;52.324;8.032;2023-02-18T14:59:44;100417.22;;;9.42;100.00
60345;BME280;46188;52.324;8.032;2023-02-18T15:02:20;100419.97;;;9.51;100.00
60345;BME280;46188;52.324;8.032;2023-02-18T15:04:47;100429.66;;;9.52;100.00
60345;BME280;46188;52.324;8.032;2023-02-18T15:07:17;100426.13;;;9.50;100.00
60345;BME280;46188;52.324;8.032;2023-02-18T15:09:44;100431.38;;;9.49;100.00
60345;BME280;46188;52.324;8.032;2023-02-18T15:12:14;100438.34;;;9.47;100.00
60345;BME280;46188;52.324;8.032;2023-02-18T15:14:42;100430.47;;;9.48;100.00
60345;BME280;46188;52.324;8.032;2023-02-18T15:17:20;100430.47;;;9.48;100.00
60345;BME280;46188;52.324;8.032;2023-02-18T15:19:53;100437.56;;;9.52;100.00